| time (UTC) | temp F | wind direction | speed knots | gust knots | rain 1hr in | rain 24hr in | rain mn in | humidity % | barometer mb |
| 20260505180008 | 51 | 12 | 0.0 | 0.0 | 0.00 | 0.80 | 0.80 | 1 | 1010.2 |
| 20260505174503 | 51 | 55 | 0.0 | 0.0 | 0.00 | 0.80 | 0.80 | 1 | 1010.2 |
| 20260505173100 | 50 | 55 | 0.0 | 0.0 | 0.00 | 0.80 | 0.80 | 1 | 1010.1 |
| 20260505171555 | 51 | 56 | 0.0 | 0.0 | 0.00 | 0.80 | 0.80 | 1 | 1010.2 |
| 20260505170050 | 51 | 20 | 0.0 | 0.0 | 0.00 | 0.80 | 0.80 | 1 | 1010.2 |
| 20260505164558 | 51 | 44 | 0.0 | 0.0 | 0.00 | 0.80 | 0.80 | 1 | 1010.1 |
| 20260505163048 | 52 | 30 | 0.0 | 0.0 | 0.01 | 0.80 | 0.80 | 1 | 1009.3 |
| 20260505161537 | 51 | 50 | 0.0 | 0.0 | 0.04 | 0.80 | 0.80 | 1 | 1009.1 |
| 20260505153023 | 50 | 79 | 0.0 | 0.0 | 0.22 | 0.79 | 0.79 | 1 | 1009.2 |
| 20260505151520 | 50 | 49 | 0.0 | 0.0 | 0.31 | 0.76 | 0.76 | 1 | 1010.3 |
| 20260505140106 | 54 | 13 | 0.0 | 0.0 | 0.01 | 0.45 | 0.45 | 1 | 1009.5 |
| 20260505124537 | 57 | 345 | 0.0 | 0.0 | 0.00 | 0.41 | 0.41 | 1 | 1009.2 |
| 20260505123029 | 58 | 338 | 0.0 | 0.0 | 0.00 | 0.41 | 0.41 | 1 | 1009.1 |
| 20260505121525 | 0 | 0.0 | 0.0 | 0.00 | 0.41 | 0.41 | 1008.8 | ||
| 20260505120020 | 0 | 0.0 | 0.0 | 0.00 | 0.41 | 0.41 | 1008.6 | ||
| 20260505114530 | 0 | 0.0 | 0.0 | 0.00 | 0.41 | 0.41 | 1008.8 | ||
| 20260505113013 | 0 | 0.0 | 0.0 | 0.00 | 0.41 | 0.41 | 1008.3 | ||
| 20260505111507 | 0 | 0.0 | 0.0 | 0.00 | 0.41 | 0.41 | 1008.0 | ||
| 20260505101550 | 57 | 190 | 0.0 | 0.0 | 0.00 | 0.41 | 0.41 | 1 | 1007.1 |
| 20260505100051 | 57 | 177 | 0.0 | 0.0 | 0.00 | 0.41 | 0.41 | 1 | 1007.3 |
| 20260505094542 | 57 | 193 | 0.0 | 0.0 | 0.00 | 0.44 | 0.41 | 1 | 1006.9 |
| 20260505093036 | 57 | 147 | 0.0 | 0.0 | 0.00 | 0.44 | 0.41 | 1 | 1007.1 |
| 20260505091547 | 57 | 243 | 0.0 | 0.0 | 0.02 | 0.44 | 0.41 | 1 | 1007.4 |
| 20260505090047 | 57 | 196 | 0.0 | 0.0 | 0.12 | 0.44 | 0.41 | 1 | 1007.6 |
| 20260505084530 | 56 | 342 | 0.0 | 0.0 | 0.28 | 0.50 | 0.41 | 1 | 1007.6 |
| 20260505083033 | 56 | 342 | 0.0 | 0.0 | 0.32 | 0.50 | 0.41 | 1 | 1008.2 |
| 20260505081522 | 57 | 342 | 0.0 | 0.0 | 0.36 | 0.48 | 0.39 | 1 | 1008.4 |
| 20260505080011 | 57 | 356 | 0.0 | 0.0 | 0.27 | 0.36 | 0.27 | 1 | 1008.7 |
| 20260505074507 | 58 | 127 | 0.0 | 0.0 | 0.12 | 0.21 | 0.12 | 1 | 1007.9 |
| 20260505073004 | 60 | 63 | 0.0 | 0.0 | 0.09 | 0.18 | 0.09 | 1 | 1008.1 |
| 20260505071558 | 63 | 14 | 0.0 | 0.0 | 0.03 | 0.12 | 0.03 | 32 | 1008.5 |
| 20260505070056 | 67 | 326 | 0.0 | 0.0 | 0.00 | 0.09 | 0.00 | 48 | 1008.5 |
| 20260505064551 | 67 | 239 | 0.0 | 0.0 | 0.00 | 0.09 | 0.00 | 48 | 1006.6 |
| 20260505063055 | 66 | 242 | 0.0 | 0.0 | 0.00 | 0.09 | 0.00 | 49 | 1006.1 |
| 20260505061615 | 66 | 242 | 0.0 | 0.0 | 0.00 | 0.09 | 0.00 | 50 | 1005.7 |
| 20260505060050 | 67 | 240 | 0.0 | 0.0 | 0.00 | 0.09 | 0.00 | 52 | 1005.4 |
| 20260505054555 | 67 | 216 | 0.0 | 0.0 | 0.00 | 0.09 | 0.00 | 52 | 1005.1 |
| 20260505053043 | 67 | 249 | 0.0 | 0.0 | 0.00 | 0.09 | 0.00 | 52 | 1005.0 |
| 20260505051540 | 67 | 193 | 0.0 | 0.0 | 0.00 | 0.09 | 0.00 | 53 | 1005.0 |
| 20260505041525 | 68 | 226 | 0.0 | 0.0 | 0.00 | 0.09 | 0.09 | 54 | 1004.8 |
| 20260505040024 | 69 | 244 | 0.0 | 0.0 | 0.00 | 0.09 | 0.09 | 54 | 1004.7 |
| 20260505034522 | 69 | 231 | 0.0 | 0.0 | 0.00 | 0.09 | 0.09 | 53 | 1005.1 |
| 20260505033032 | 69 | 188 | 0.0 | 0.0 | 0.00 | 0.09 | 0.09 | 52 | 1004.9 |
| 20260505031521 | 69 | 199 | 0.0 | 0.0 | 0.00 | 0.09 | 0.09 | 52 | 1004.9 |
| 20260505030020 | 69 | 202 | 0.0 | 0.0 | 0.00 | 0.09 | 0.09 | 54 | 1004.9 |
| 20260505024538 | 69 | 174 | 0.0 | 0.0 | 0.00 | 0.09 | 0.09 | 55 | 1004.9 |
| 20260505023012 | 70 | 184 | 0.0 | 0.0 | 0.00 | 0.09 | 0.09 | 54 | 1004.8 |
| 20260505021525 | 71 | 221 | 0.0 | 0.0 | 0.00 | 0.09 | 0.09 | 52 | 1004.9 |
| 20260505020002 | 72 | 198 | 0.0 | 0.0 | 0.00 | 0.09 | 0.09 | 50 | 1004.4 |
| 20260505014559 | 72 | 228 | 0.0 | 0.0 | 0.00 | 0.09 | 0.09 | 49 | 1003.0 |
| 20260505013056 | 71 | 224 | 0.0 | 0.0 | 0.00 | 0.09 | 0.09 | 51 | 1003.7 |
| 20260505011555 | 71 | 237 | 0.0 | 0.0 | 0.00 | 0.09 | 0.09 | 50 | 1003.9 |
| 20260505010046 | 71 | 167 | 0.0 | 0.0 | 0.00 | 0.09 | 0.09 | 51 | 1004.4 |
| 20260505004545 | 71 | 236 | 0.0 | 0.0 | 0.00 | 0.09 | 0.09 | 50 | 1004.3 |
| 20260505003036 | 71 | 223 | 0.0 | 0.0 | 0.00 | 0.09 | 0.09 | 49 | 1004.2 |
| 20260505001533 | 72 | 178 | 0.0 | 0.0 | 0.00 | 0.09 | 0.09 | 49 | 1004.0 |
| 20260505000026 | 73 | 230 | 0.0 | 0.0 | 0.00 | 0.09 | 0.09 | 46 | 1003.9 |
| 20260504234521 | 74 | 225 | 0.0 | 0.0 | 0.00 | 0.09 | 0.09 | 46 | 1004.1 |
| 20260504233018 | 74 | 172 | 0.0 | 0.0 | 0.00 | 0.09 | 0.09 | 48 | 1004.3 |
| 20260504231513 | 75 | 240 | 0.0 | 0.0 | 0.00 | 0.09 | 0.09 | 46 | 1004.4 |
| 20260504230009 | 75 | 169 | 0.0 | 0.0 | 0.00 | 0.09 | 0.09 | 46 | 1004.1 |
| 20260504224507 | 76 | 194 | 0.0 | 0.0 | 0.00 | 0.09 | 0.09 | 45 | 1004.1 |
| 20260504223104 | 76 | 221 | 0.0 | 0.0 | 0.00 | 0.09 | 0.09 | 45 | 1004.0 |
| 20260504221605 | 75 | 237 | 0.0 | 0.0 | 0.00 | 0.09 | 0.09 | 45 | 1004.6 |
| 20260504220113 | 76 | 197 | 0.0 | 0.0 | 0.00 | 0.09 | 0.09 | 45 | 1004.7 |
| 20260504214545 | 75 | 200 | 0.0 | 0.0 | 0.00 | 0.09 | 0.09 | 44 | 1004.7 |
| 20260504213045 | 0 | 191 | 0.0 | 0.0 | 0.00 | 0.09 | 0.09 | 1004.8 | |
| 20260504211536 | 0 | 174 | 0.0 | 0.0 | 0.00 | 0.09 | 0.09 | 1005.0 | |
| 20260504210032 | 72 | 153 | 0.0 | 0.0 | 0.00 | 0.09 | 0.09 | 44 | 1005.6 |
| 20260504204534 | 72 | 217 | 0.0 | 0.0 | 0.00 | 0.09 | 0.09 | 43 | 1006.2 |
| 20260504203026 | 72 | 220 | 0.0 | 0.0 | 0.00 | 0.09 | 0.09 | 43 | 1006.3 |
| 20260504201519 | 72 | 197 | 0.0 | 0.0 | 0.00 | 0.09 | 0.09 | 42 | 1006.2 |
| 20260504200017 | 70 | 196 | 0.0 | 0.0 | 0.00 | 0.09 | 0.09 | 43 | 1006.2 |
| 20260504194510 | 70 | 238 | 0.0 | 0.0 | 0.00 | 0.09 | 0.09 | 44 | 1008.0 |
| 20260504193006 | 0 | 229 | 0.0 | 0.0 | 0.00 | 0.09 | 0.09 | 1008.0 | |
| 20260504191507 | 0 | 207 | 0.0 | 0.0 | 0.00 | 0.09 | 0.09 | 1008.0 | |
| 20260504190100 | 73 | 222 | 0.0 | 0.0 | 0.00 | 0.09 | 0.09 | 44 | 1007.3 |
| 20260504184559 | 74 | 247 | 0.0 | 0.0 | 0.00 | 0.09 | 0.09 | 43 | 1007.0 |
| 20260504183049 | 74 | 232 | 0.0 | 0.0 | 0.00 | 0.09 | 0.09 | 42 | 1007.2 |
| 20260504181549 | 73 | 242 | 0.0 | 0.0 | 0.00 | 0.09 | 0.09 | 41 | 1006.9 |